createdAt,value
2023-04-19T00:02:16.326Z,1.35
2023-04-19T00:04:49.320Z,1.38
2023-04-19T00:07:20.926Z,1.60
2023-04-19T00:09:52.775Z,0.80
2023-04-19T00:12:23.715Z,1.00
2023-04-19T00:14:55.320Z,1.55
2023-04-19T00:17:26.038Z,0.88
2023-04-19T00:19:57.098Z,1.00
2023-04-19T00:22:27.910Z,0.90
2023-04-19T00:24:59.364Z,0.93
2023-04-19T00:27:30.743Z,0.98
2023-04-19T00:30:02.216Z,0.75
2023-04-19T00:32:32.997Z,1.10
2023-04-19T00:35:03.661Z,1.15
2023-04-19T00:37:34.370Z,1.15
2023-04-19T00:40:06.432Z,0.77
2023-04-19T00:45:20.142Z,0.70
2023-04-19T00:47:54.559Z,0.88
2023-04-19T00:50:25.598Z,0.82
2023-04-19T00:53:01.147Z,1.20
2023-04-19T00:55:32.820Z,0.73
2023-04-19T00:58:03.486Z,1.45
2023-04-19T01:00:35.593Z,1.85
2023-04-19T01:03:07.470Z,1.30
2023-04-19T01:05:46.559Z,1.10
2023-04-19T01:08:18.488Z,1.20
2023-04-19T01:10:50.856Z,1.42
2023-04-19T01:13:21.453Z,1.23
2023-04-19T01:15:56.766Z,1.30
2023-04-19T01:18:28.008Z,1.10
2023-04-19T01:20:58.648Z,1.75
2023-04-19T01:23:29.415Z,1.77
2023-04-19T01:26:00.035Z,1.60
2023-04-19T01:28:30.773Z,1.10
2023-04-19T01:31:09.245Z,2.00
2023-04-19T01:33:39.854Z,2.00
2023-04-19T01:36:12.231Z,1.13
2023-04-19T01:38:43.988Z,1.55
2023-04-19T01:41:15.664Z,1.20
2023-04-19T01:43:54.995Z,1.50
2023-04-19T01:46:28.322Z,1.23
2023-04-19T01:49:06.085Z,0.82
2023-04-19T01:51:37.004Z,0.80
2023-04-19T01:54:22.675Z,0.90
2023-04-19T01:59:37.270Z,1.23
2023-04-19T02:02:11.381Z,1.27
2023-04-19T02:04:42.930Z,1.13
2023-04-19T02:07:15.676Z,1.15
2023-04-19T02:09:46.424Z,1.10
2023-04-19T02:12:19.021Z,1.00
2023-04-19T02:14:49.739Z,1.05
2023-04-19T02:17:21.556Z,1.75
2023-04-19T02:19:52.500Z,0.88
2023-04-19T02:22:27.724Z,1.08
2023-04-19T02:25:00.622Z,0.80
2023-04-19T02:27:31.985Z,0.98
2023-04-19T02:30:03.951Z,0.70
2023-04-19T02:32:34.713Z,0.70
2023-04-19T02:35:05.575Z,0.73
2023-04-19T02:37:36.488Z,0.90
2023-04-19T02:40:07.634Z,0.90
2023-04-19T02:42:38.639Z,1.42
2023-04-19T02:45:13.931Z,1.10
2023-04-19T02:47:44.672Z,0.82
2023-04-19T02:50:16.600Z,1.02
2023-04-19T02:52:50.975Z,0.93
2023-04-19T02:55:21.730Z,0.80
2023-04-19T02:57:52.850Z,1.10
2023-04-19T03:00:23.897Z,0.70
2023-04-19T03:02:55.051Z,1.00
2023-04-19T03:05:26.961Z,1.83
2023-04-19T03:07:57.952Z,0.73
2023-04-19T03:10:29.681Z,1.10
2023-04-19T03:13:06.183Z,0.93
2023-04-19T03:15:36.942Z,0.90
2023-04-19T03:18:07.691Z,0.70
2023-04-19T03:20:43.203Z,1.17
2023-04-19T03:23:14.181Z,0.80
2023-04-19T03:25:46.507Z,0.68
2023-04-19T03:28:30.431Z,0.75
2023-04-19T03:31:01.259Z,0.70
2023-04-19T03:33:38.172Z,0.60
2023-04-19T03:36:12.272Z,0.70
2023-04-19T03:38:46.013Z,0.82
2023-04-19T03:41:45.405Z,0.65
2023-04-19T03:44:16.378Z,0.50
2023-04-19T03:46:48.009Z,1.30
2023-04-19T03:49:18.562Z,0.60
2023-04-19T03:51:49.524Z,0.80
2023-04-19T03:54:20.161Z,0.60
2023-04-19T03:56:51.762Z,0.40
2023-04-19T03:59:22.449Z,0.60
2023-04-19T04:02:04.130Z,1.00
2023-04-19T04:04:39.815Z,0.75
2023-04-19T04:10:04.127Z,0.70
2023-04-19T04:12:35.198Z,0.80
2023-04-19T04:15:23.381Z,0.50
2023-04-19T04:17:55.194Z,0.60
2023-04-19T04:20:41.159Z,0.47
2023-04-19T04:23:23.823Z,0.85
2023-04-19T04:26:08.136Z,0.85
2023-04-19T04:28:43.720Z,0.50
2023-04-19T04:31:27.641Z,0.68
2023-04-19T04:34:02.711Z,0.52
2023-04-19T04:36:37.668Z,0.40
2023-04-19T04:41:56.709Z,0.60
2023-04-19T04:44:32.819Z,0.60
2023-04-19T04:47:03.686Z,0.60
2023-04-19T04:49:37.651Z,0.60
2023-04-19T04:52:15.492Z,0.50
2023-04-19T04:54:50.132Z,0.70
2023-04-19T04:57:28.007Z,1.33
2023-04-19T05:00:00.185Z,0.70
2023-04-19T05:02:32.213Z,0.77
2023-04-19T05:05:02.972Z,0.30
2023-04-19T05:07:33.735Z,0.63
2023-04-19T05:10:04.922Z,0.40
2023-04-19T05:12:35.568Z,0.57
2023-04-19T05:15:06.530Z,1.17
2023-04-19T05:17:37.285Z,0.60
2023-04-19T05:20:08.585Z,0.60
2023-04-19T05:22:39.642Z,0.50
2023-04-19T05:25:13.142Z,0.50
2023-04-19T05:27:47.159Z,0.73
2023-04-19T05:30:18.266Z,0.82
2023-04-19T05:32:50.632Z,0.70
2023-04-19T05:35:23.147Z,0.60
2023-04-19T05:37:54.787Z,0.70
2023-04-19T05:40:29.329Z,0.55
2023-04-19T05:42:59.983Z,0.75
2023-04-19T05:45:30.808Z,1.55
2023-04-19T05:48:06.321Z,0.60
2023-04-19T05:50:46.603Z,0.60
2023-04-19T05:53:18.478Z,0.75
2023-04-19T05:55:52.358Z,0.80
2023-04-19T05:58:23.106Z,0.70
2023-04-19T06:00:55.833Z,0.70
2023-04-19T06:03:28.739Z,0.70
2023-04-19T06:06:03.014Z,1.60
2023-04-19T06:08:48.516Z,1.00
2023-04-19T06:11:34.847Z,0.85
2023-04-19T06:14:10.932Z,0.70
2023-04-19T06:16:42.162Z,0.70
2023-04-19T06:19:14.630Z,1.20
2023-04-19T06:21:48.433Z,0.80
2023-04-19T06:24:19.142Z,0.98
2023-04-19T06:26:51.823Z,0.85
2023-04-19T06:29:26.377Z,0.85
2023-04-19T06:31:57.778Z,1.00
2023-04-19T06:34:28.598Z,0.60
2023-04-19T06:36:59.305Z,0.82
2023-04-19T06:39:30.469Z,0.80
2023-04-19T06:42:01.569Z,1.08
2023-04-19T06:44:32.446Z,0.80
2023-04-19T06:47:03.612Z,1.10
2023-04-19T06:49:35.005Z,1.50
2023-04-19T06:52:05.724Z,1.17
2023-04-19T06:57:20.270Z,1.20
2023-04-19T06:59:50.938Z,1.60
2023-04-19T07:02:21.808Z,2.33
2023-04-19T07:04:52.863Z,3.05
2023-04-19T07:07:23.940Z,2.17
2023-04-19T07:09:54.934Z,2.10
2023-04-19T07:12:26.289Z,2.55
2023-04-19T07:14:59.338Z,2.25
2023-04-19T07:17:30.246Z,3.20
2023-04-19T07:20:00.884Z,2.63
2023-04-19T07:22:33.197Z,2.08
2023-04-19T07:25:04.681Z,2.83
2023-04-19T07:27:35.798Z,1.73
2023-04-19T07:30:07.675Z,2.15
2023-04-19T07:32:38.671Z,1.60
2023-04-19T07:35:11.183Z,1.58
2023-04-19T07:37:44.685Z,1.90
2023-04-19T07:40:15.982Z,1.50
2023-04-19T07:42:47.697Z,1.20
2023-04-19T07:45:19.222Z,1.70
2023-04-19T07:47:50.870Z,1.55
2023-04-19T07:50:23.262Z,1.63
2023-04-19T07:52:53.585Z,1.45
2023-04-19T07:55:24.640Z,1.70
2023-04-19T07:57:55.642Z,1.13
2023-04-19T08:00:26.616Z,1.10
2023-04-19T08:02:58.810Z,1.38
2023-04-19T08:05:32.285Z,1.02
2023-04-19T08:08:04.791Z,1.27
2023-04-19T08:10:38.237Z,1.30
2023-04-19T08:13:10.067Z,1.40
2023-04-19T08:18:15.245Z,1.52
2023-04-19T08:20:46.007Z,1.70
2023-04-19T08:23:24.457Z,2.85
2023-04-19T08:25:57.997Z,2.10
2023-04-19T08:28:30.653Z,2.13
2023-04-19T08:31:02.719Z,2.30
2023-04-19T08:33:38.250Z,1.52
2023-04-19T08:36:09.336Z,1.75
2023-04-19T08:42:18.248Z,2.28
2023-04-19T08:45:25.462Z,2.20
2023-04-19T08:47:59.857Z,1.88
2023-04-19T08:50:38.800Z,1.70
2023-04-19T08:53:25.577Z,1.52
2023-04-19T08:58:46.626Z,2.78
2023-04-19T09:01:35.575Z,2.42
2023-04-19T09:04:34.464Z,1.67
2023-04-19T09:07:00.893Z,2.00
2023-04-19T09:09:39.250Z,2.30
2023-04-19T09:12:23.141Z,2.17
2023-04-19T09:15:01.898Z,2.45
2023-04-19T09:17:33.716Z,2.03
2023-04-19T09:20:05.792Z,2.00
2023-04-19T09:22:36.821Z,2.50
2023-04-19T09:27:43.920Z,2.03
2023-04-19T09:30:24.221Z,2.38
2023-04-19T09:33:01.279Z,2.17
2023-04-19T09:35:52.574Z,1.90
2023-04-19T09:38:41.444Z,1.38
2023-04-19T09:41:12.320Z,1.30
2023-04-19T09:44:00.731Z,1.00
2023-04-19T09:46:39.400Z,0.77
2023-04-19T09:52:12.424Z,1.15
2023-04-19T09:54:46.388Z,0.82
2023-04-19T09:57:17.714Z,1.10
2023-04-19T09:59:48.637Z,0.95
2023-04-19T10:02:20.180Z,0.95
2023-04-19T10:10:19.547Z,0.75
2023-04-19T10:13:11.512Z,0.90
2023-04-19T10:15:53.846Z,0.80
2023-04-19T10:18:26.865Z,1.40
2023-04-19T10:21:09.851Z,1.20
2023-04-19T10:23:40.664Z,1.00
2023-04-19T10:26:11.565Z,1.35
2023-04-19T10:28:47.350Z,0.90
2023-04-19T10:31:25.685Z,1.00
2023-04-19T10:36:30.862Z,1.15
2023-04-19T10:39:02.646Z,0.93
2023-04-19T10:42:01.830Z,1.70
2023-04-19T10:44:33.549Z,1.10
2023-04-19T10:47:05.204Z,0.85
2023-04-19T10:49:46.829Z,1.10
2023-04-19T10:52:35.026Z,1.25
2023-04-19T10:55:09.994Z,0.90
2023-04-19T10:58:09.489Z,1.23
2023-04-19T11:00:40.569Z,0.88
2023-04-19T11:03:49.611Z,1.13
2023-04-19T11:06:22.330Z,1.00
2023-04-19T11:08:54.619Z,1.42
2023-04-19T11:11:27.503Z,0.98
2023-04-19T11:14:07.977Z,1.55
2023-04-19T11:16:45.405Z,1.30
2023-04-19T11:19:21.235Z,1.23
2023-04-19T11:21:52.832Z,1.63
2023-04-19T11:24:24.683Z,1.20
2023-04-19T11:26:55.672Z,1.33
2023-04-19T11:29:26.754Z,1.05
2023-04-19T11:31:58.638Z,1.63
2023-04-19T11:34:33.013Z,1.42
2023-04-19T11:37:05.047Z,1.00
2023-04-19T11:39:47.170Z,1.45
2023-04-19T11:42:24.469Z,1.25
2023-04-19T11:45:01.210Z,1.20
2023-04-19T11:47:32.227Z,1.95
2023-04-19T11:50:34.900Z,1.60
2023-04-19T11:53:25.673Z,1.00
2023-04-19T11:56:03.765Z,1.67
2023-04-19T11:58:40.789Z,1.73
2023-04-19T12:01:14.172Z,2.92
2023-04-19T12:03:48.825Z,1.23
2023-04-19T12:06:23.101Z,1.65
2023-04-19T12:08:55.432Z,2.75
2023-04-19T12:11:33.111Z,1.50
2023-04-19T12:14:17.993Z,1.10
2023-04-19T12:16:50.516Z,1.60
2023-04-19T12:19:23.117Z,1.60
2023-04-19T12:21:53.713Z,1.42
2023-04-19T12:24:25.601Z,1.73
2023-04-19T12:27:00.426Z,1.33
2023-04-19T12:29:36.888Z,1.33
2023-04-19T12:32:08.237Z,1.65
2023-04-19T12:34:39.199Z,1.52
2023-04-19T12:37:11.806Z,1.67
2023-04-19T12:39:45.359Z,1.80
2023-04-19T12:42:15.874Z,1.67
2023-04-19T12:44:47.723Z,1.77
2023-04-19T12:47:18.742Z,1.45
2023-04-19T12:49:49.146Z,1.83
2023-04-19T12:52:19.540Z,1.70
2023-04-19T12:54:50.128Z,1.70
2023-04-19T12:57:20.401Z,1.48
2023-04-19T12:59:50.652Z,1.55
2023-04-19T13:02:21.124Z,1.48
2023-04-19T13:04:51.696Z,1.90
2023-04-19T13:07:22.035Z,1.83
2023-04-19T13:09:52.691Z,1.58
2023-04-19T13:12:23.602Z,1.60
2023-04-19T13:14:54.191Z,2.65
2023-04-19T13:17:24.998Z,1.58
2023-04-19T13:19:55.472Z,1.52
2023-04-19T13:22:25.818Z,1.95
2023-04-19T13:24:56.649Z,2.53
2023-04-19T13:27:26.910Z,1.70
2023-04-19T13:29:58.833Z,2.00
2023-04-19T13:32:29.105Z,1.60
2023-04-19T13:34:59.594Z,1.65
2023-04-19T13:37:29.904Z,1.80
2023-04-19T13:40:14.741Z,2.35
2023-04-19T13:42:48.389Z,2.35
2023-04-19T13:45:18.728Z,1.67
2023-04-19T13:47:49.005Z,1.65
2023-04-19T13:50:19.237Z,1.83
2023-04-19T13:52:50.569Z,1.75
2023-04-19T13:55:21.684Z,1.92
2023-04-19T13:57:52.115Z,1.48
2023-04-19T14:00:23.309Z,2.35
2023-04-19T14:02:54.055Z,1.85
2023-04-19T14:05:24.688Z,1.77
2023-04-19T14:07:56.153Z,1.70
2023-04-19T14:10:26.411Z,2.47
2023-04-19T14:12:56.935Z,1.80
2023-04-19T14:15:27.418Z,2.20
2023-04-19T14:17:58.266Z,1.70
2023-04-19T14:20:28.559Z,1.60
2023-04-19T14:23:03.152Z,1.33
2023-04-19T14:25:34.142Z,1.60
2023-04-19T14:28:04.947Z,1.80
2023-04-19T14:30:35.610Z,1.52
2023-04-19T14:33:06.331Z,1.08
2023-04-19T14:35:38.251Z,1.10
2023-04-19T14:38:10.038Z,1.05
2023-04-19T14:40:41.133Z,0.85
2023-04-19T14:43:13.708Z,1.20
2023-04-19T14:45:44.167Z,0.82
2023-04-19T14:48:14.411Z,0.80
2023-04-19T14:50:45.372Z,1.23
2023-04-19T14:53:15.632Z,0.77
2023-04-19T14:55:46.028Z,0.80
2023-04-19T14:58:16.243Z,0.73
2023-04-19T15:00:47.278Z,0.90
2023-04-19T15:03:18.826Z,1.42
2023-04-19T15:05:49.431Z,0.73
2023-04-19T15:08:30.608Z,0.90
2023-04-19T15:11:02.499Z,0.90
2023-04-19T15:13:34.319Z,0.80
2023-04-19T15:16:07.221Z,0.98
2023-04-19T15:18:42.800Z,0.95
2023-04-19T15:21:13.348Z,0.90
2023-04-19T15:23:44.285Z,0.70
2023-04-19T15:26:15.473Z,0.80
2023-04-19T15:28:45.828Z,0.82
2023-04-19T15:31:16.277Z,0.95
2023-04-19T15:33:46.956Z,0.82
2023-04-19T15:36:17.962Z,0.90
2023-04-19T15:38:48.191Z,0.80
2023-04-19T15:41:20.269Z,0.80
2023-04-19T15:43:51.098Z,0.80
2023-04-19T15:46:21.388Z,0.73
2023-04-19T15:48:52.336Z,0.65
2023-04-19T15:51:23.061Z,1.15
2023-04-19T15:53:54.313Z,0.85
2023-04-19T15:56:26.496Z,0.70
2023-04-19T15:58:58.183Z,0.70
2023-04-19T16:01:28.685Z,0.85
2023-04-19T16:03:59.261Z,0.70
2023-04-19T16:06:29.837Z,0.70
2023-04-19T16:09:00.610Z,0.77
2023-04-19T16:11:32.161Z,0.80
2023-04-19T16:14:03.742Z,1.42
2023-04-19T16:16:37.387Z,0.80
2023-04-19T16:19:08.157Z,0.60
2023-04-19T16:21:39.000Z,1.00
2023-04-19T16:24:10.064Z,0.80
2023-04-19T16:26:42.107Z,0.90
2023-04-19T16:29:12.442Z,0.60
2023-04-19T16:31:44.037Z,0.73
2023-04-19T16:34:14.691Z,0.77
2023-04-19T16:36:46.982Z,0.75
2023-04-19T16:39:17.746Z,1.20
2023-04-19T16:41:48.271Z,0.77
2023-04-19T16:44:21.155Z,0.60
2023-04-19T16:46:51.400Z,0.77
2023-04-19T16:49:23.646Z,1.00
2023-04-19T16:51:53.879Z,0.75
2023-04-19T16:54:25.493Z,0.90
2023-04-19T16:56:56.437Z,0.90
2023-04-19T16:59:27.081Z,1.20
2023-04-19T17:02:02.121Z,0.80
2023-04-19T17:04:34.515Z,1.10
2023-04-19T17:07:05.576Z,0.98
2023-04-19T17:09:36.832Z,1.08
2023-04-19T17:12:09.355Z,0.80
2023-04-19T17:14:41.305Z,0.80
2023-04-19T17:17:12.142Z,0.80
2023-04-19T17:19:42.443Z,1.58
2023-04-19T17:22:12.840Z,1.02
2023-04-19T17:24:43.051Z,0.88
2023-04-19T17:27:13.627Z,0.80
2023-04-19T17:29:43.921Z,1.10
2023-04-19T17:32:14.203Z,0.65
2023-04-19T17:34:44.556Z,0.90
2023-04-19T17:37:14.768Z,0.80
2023-04-19T17:39:45.093Z,0.85
2023-04-19T17:42:15.364Z,0.80
2023-04-19T17:44:45.592Z,0.60
2023-04-19T17:47:16.054Z,1.38
2023-04-19T17:49:48.575Z,1.40
2023-04-19T17:52:18.807Z,0.68
2023-04-19T17:54:50.359Z,0.80
2023-04-19T17:57:21.596Z,0.90
2023-04-19T17:59:51.921Z,0.85
2023-04-19T18:02:22.578Z,0.85
2023-04-19T18:04:53.834Z,0.75
2023-04-19T18:07:25.782Z,1.25
2023-04-19T18:09:56.004Z,1.27
2023-04-19T18:12:26.373Z,1.25
2023-04-19T18:14:56.608Z,1.00
2023-04-19T18:17:26.997Z,1.15
2023-04-19T18:19:58.037Z,1.10
2023-04-19T18:22:28.493Z,0.77
2023-04-19T18:24:59.772Z,0.80
2023-04-19T18:27:32.280Z,0.80
2023-04-19T18:30:05.749Z,0.77
2023-04-19T18:32:37.465Z,1.55
2023-04-19T18:35:11.486Z,1.35
2023-04-19T18:37:42.138Z,1.10
2023-04-19T18:40:14.643Z,1.23
2023-04-19T18:42:44.951Z,1.10
2023-04-19T18:45:16.065Z,1.13
2023-04-19T18:47:46.926Z,1.23
2023-04-19T18:50:19.067Z,1.70
2023-04-19T18:52:49.658Z,1.08
2023-04-19T18:55:19.989Z,1.20
2023-04-19T18:57:50.211Z,1.60
2023-04-19T19:00:22.067Z,1.27
2023-04-19T19:02:53.088Z,1.23
2023-04-19T19:05:24.294Z,1.30
2023-04-19T19:07:54.826Z,1.55
2023-04-19T19:10:48.567Z,1.55
2023-04-19T19:13:19.866Z,1.17
2023-04-19T19:15:50.654Z,1.50
2023-04-19T19:18:20.950Z,1.27
2023-04-19T19:20:53.106Z,1.30
2023-04-19T19:23:35.494Z,1.30
2023-04-19T19:26:08.881Z,1.60
2023-04-19T19:28:39.547Z,1.60
2023-04-19T19:31:11.120Z,1.48
2023-04-19T19:33:41.462Z,1.45
2023-04-19T19:36:12.215Z,1.42
2023-04-19T19:38:42.542Z,1.70
2023-04-19T19:43:47.635Z,1.45
2023-04-19T19:46:22.828Z,1.85
2023-04-19T19:48:54.180Z,1.60
2023-04-19T19:53:59.231Z,1.70
2023-04-19T19:56:32.164Z,1.20
2023-04-19T19:59:03.219Z,1.35
2023-04-19T20:01:34.624Z,1.52
2023-04-19T20:04:05.921Z,1.70
2023-04-19T20:07:25.267Z,1.77
2023-04-19T20:09:29.893Z,1.23
2023-04-19T20:12:01.492Z,1.27
2023-04-19T20:14:32.362Z,1.13
2023-04-19T20:17:04.877Z,1.02
2023-04-19T20:19:39.119Z,1.00
2023-04-19T20:22:09.857Z,1.10
2023-04-19T20:24:40.136Z,1.27
2023-04-19T20:27:11.055Z,0.75
2023-04-19T20:29:41.315Z,1.00
2023-04-19T20:32:12.677Z,1.00
2023-04-19T20:34:43.408Z,1.20
2023-04-19T20:37:13.829Z,0.90
2023-04-19T20:39:44.022Z,0.82
2023-04-19T20:42:14.387Z,1.10
2023-04-19T20:44:46.700Z,1.00
2023-04-19T20:47:18.069Z,0.90
2023-04-19T20:49:48.304Z,1.10
2023-04-19T20:52:18.624Z,1.10
2023-04-19T20:54:49.466Z,1.25
2023-04-19T20:57:19.966Z,1.25
2023-04-19T20:59:50.853Z,1.00
2023-04-19T21:02:21.380Z,1.08
2023-04-19T21:04:51.718Z,0.60
2023-04-19T21:07:23.654Z,0.60
2023-04-19T21:09:55.214Z,0.75
2023-04-19T21:12:25.456Z,0.95
2023-04-19T21:14:55.741Z,0.90
2023-04-19T21:17:26.270Z,1.23
2023-04-19T21:19:56.585Z,1.27
2023-04-19T21:22:26.862Z,1.35
2023-04-19T21:24:57.505Z,1.33
2023-04-19T21:27:28.277Z,1.40
2023-04-19T21:29:59.066Z,1.17
2023-04-19T21:32:30.293Z,1.02
2023-04-19T21:35:05.572Z,0.80
2023-04-19T21:37:36.497Z,0.60
2023-04-19T21:40:09.917Z,0.70
2023-04-19T21:42:41.559Z,1.00
2023-04-19T21:45:12.985Z,0.60
2023-04-19T21:47:43.991Z,0.63
2023-04-19T21:50:15.253Z,1.27
2023-04-19T21:52:47.014Z,0.70
2023-04-19T21:55:18.796Z,1.25
2023-04-19T21:57:50.071Z,0.70
2023-04-19T22:00:21.193Z,0.63
2023-04-19T22:02:53.044Z,0.68
2023-04-19T22:05:26.475Z,0.77
2023-04-19T22:08:07.540Z,1.00
2023-04-19T22:10:39.761Z,0.70
2023-04-19T22:13:12.014Z,0.70
2023-04-19T22:15:44.600Z,0.63
2023-04-19T22:18:16.411Z,1.13
2023-04-19T22:20:48.642Z,0.70
2023-04-19T22:23:20.468Z,0.73
2023-04-19T22:25:51.182Z,0.80
2023-04-19T22:28:22.318Z,0.90
2023-04-19T22:30:54.844Z,1.15
2023-04-19T22:33:26.387Z,1.10
2023-04-19T22:35:58.282Z,0.70
2023-04-19T22:38:32.646Z,0.60
2023-04-19T22:41:03.670Z,0.63
2023-04-19T22:43:35.218Z,0.85
2023-04-19T22:46:10.052Z,0.57
2023-04-19T22:48:40.544Z,1.42
2023-04-19T22:51:12.310Z,1.35
2023-04-19T22:53:43.114Z,0.80
2023-04-19T22:56:14.039Z,0.70
2023-04-19T22:58:45.037Z,0.80
2023-04-19T23:01:16.255Z,0.70
2023-04-19T23:03:49.106Z,0.90
2023-04-19T23:06:20.364Z,1.00
2023-04-19T23:08:51.316Z,0.85
2023-04-19T23:11:28.525Z,0.80
2023-04-19T23:14:01.908Z,0.60
2023-04-19T23:16:35.411Z,0.77
2023-04-19T23:19:06.451Z,0.80
2023-04-19T23:21:38.165Z,1.00
2023-04-19T23:24:09.390Z,0.75
2023-04-19T23:26:40.385Z,0.88
2023-04-19T23:29:12.355Z,0.80
2023-04-19T23:31:43.008Z,1.27
2023-04-19T23:34:15.843Z,0.80
2023-04-19T23:36:48.201Z,0.80
2023-04-19T23:39:20.478Z,0.80
2023-04-19T23:41:52.336Z,0.70
2023-04-19T23:44:24.060Z,0.70
2023-04-19T23:46:55.012Z,0.50
2023-04-19T23:49:26.254Z,0.80
2023-04-19T23:51:57.056Z,0.73
2023-04-19T23:54:29.153Z,0.70
2023-04-19T23:57:00.870Z,0.90
2023-04-19T23:59:32.856Z,0.60
